createdAt,value
2023-05-08T00:02:14.089Z,7.35
2023-05-08T00:04:40.891Z,7.20
2023-05-08T00:07:08.728Z,8.63
2023-05-08T00:09:35.900Z,14.88
2023-05-08T00:12:02.630Z,9.52
2023-05-08T00:14:29.412Z,7.80
2023-05-08T00:16:56.127Z,7.25
2023-05-08T00:19:23.512Z,10.40
2023-05-08T00:21:53.398Z,7.70
2023-05-08T00:24:20.378Z,8.30
2023-05-08T00:26:47.442Z,7.97
2023-05-08T00:29:21.551Z,8.77
2023-05-08T00:31:50.500Z,9.05
2023-05-08T00:34:17.528Z,8.80
2023-05-08T00:36:44.517Z,9.20
2023-05-08T00:39:11.461Z,8.32
2023-05-08T00:41:41.227Z,7.47
2023-05-08T00:44:12.426Z,8.00
2023-05-08T00:46:43.169Z,8.88
2023-05-08T00:49:13.443Z,9.15
2023-05-08T00:51:45.376Z,9.95
2023-05-08T00:54:16.332Z,8.80
2023-05-08T00:56:43.910Z,9.32
2023-05-08T00:59:14.294Z,9.50
2023-05-08T01:01:41.534Z,9.20
2023-05-08T01:04:08.445Z,8.63
2023-05-08T01:06:36.893Z,9.55
2023-05-08T01:09:04.436Z,10.30
2023-05-08T01:11:41.484Z,9.23
2023-05-08T01:14:22.710Z,9.43
2023-05-08T01:17:14.029Z,9.13
2023-05-08T01:19:56.966Z,12.05
2023-05-08T01:22:33.291Z,9.80
2023-05-08T01:25:18.549Z,8.82
2023-05-08T01:28:36.797Z,10.68
2023-05-08T01:31:46.771Z,9.77
2023-05-08T01:34:35.743Z,10.73
2023-05-08T01:37:17.604Z,8.90
2023-05-08T01:40:02.012Z,11.27
2023-05-08T01:42:29.847Z,9.38
2023-05-08T01:45:02.610Z,11.23
2023-05-08T01:47:33.643Z,10.32
2023-05-08T01:50:16.893Z,12.57
2023-05-08T01:52:51.494Z,12.05
2023-05-08T01:55:24.978Z,12.15
2023-05-08T01:57:55.779Z,10.75
2023-05-08T02:00:29.882Z,12.65
2023-05-08T02:03:05.544Z,10.75
2023-05-08T02:05:38.209Z,11.25
2023-05-08T02:08:06.952Z,10.75
2023-05-08T02:10:35.770Z,11.80
2023-05-08T02:13:04.505Z,11.93
2023-05-08T02:15:36.107Z,12.30
2023-05-08T02:18:08.592Z,11.75
2023-05-08T02:20:36.969Z,11.80
2023-05-08T02:23:04.806Z,11.65
2023-05-08T02:25:32.798Z,12.40
2023-05-08T02:28:00.768Z,11.98
2023-05-08T02:30:29.401Z,12.02
2023-05-08T02:33:00.564Z,13.48
2023-05-08T02:35:31.294Z,11.60
2023-05-08T02:37:59.298Z,13.25
2023-05-08T02:40:35.539Z,13.10
2023-05-08T02:43:07.109Z,12.88
2023-05-08T02:45:47.979Z,11.15
2023-05-08T02:48:52.617Z,13.30
2023-05-08T02:51:44.685Z,13.52
2023-05-08T02:54:20.175Z,12.25
2023-05-08T02:56:59.265Z,13.05
2023-05-08T02:59:37.308Z,13.55
2023-05-08T03:02:12.606Z,12.75
2023-05-08T03:04:50.394Z,13.25
2023-05-08T03:07:22.001Z,11.77
2023-05-08T03:09:55.387Z,13.90
2023-05-08T03:12:26.801Z,13.10
2023-05-08T03:15:18.005Z,13.27
2023-05-08T03:17:47.566Z,13.93
2023-05-08T03:20:18.308Z,12.90
2023-05-08T03:22:46.855Z,13.55
2023-05-08T03:25:17.740Z,13.27
2023-05-08T03:27:45.853Z,13.93
2023-05-08T03:30:14.478Z,14.43
2023-05-08T03:32:46.503Z,13.95
2023-05-08T03:35:17.311Z,13.48
2023-05-08T03:37:47.841Z,14.45
2023-05-08T03:40:15.352Z,13.32
2023-05-08T03:42:44.560Z,13.13
2023-05-08T03:45:14.343Z,14.02
2023-05-08T03:47:42.551Z,13.15
2023-05-08T03:50:14.302Z,14.80
2023-05-08T03:52:41.398Z,13.68
2023-05-08T03:55:09.643Z,13.90
2023-05-08T03:57:45.788Z,13.25
2023-05-08T04:00:57.717Z,13.82
2023-05-08T04:04:02.580Z,14.50
2023-05-08T04:06:48.707Z,15.18
2023-05-08T04:09:24.945Z,14.63
2023-05-08T04:12:12.830Z,14.27
2023-05-08T04:14:57.044Z,16.85
2023-05-08T04:17:48.090Z,14.55
2023-05-08T04:20:21.030Z,12.35
2023-05-08T04:22:59.700Z,16.15
2023-05-08T04:25:32.419Z,15.07
2023-05-08T04:28:00.492Z,14.43
2023-05-08T04:30:28.855Z,14.52
2023-05-08T04:32:56.579Z,18.85
2023-05-08T04:35:23.857Z,15.52
2023-05-08T04:37:51.651Z,14.15
2023-05-08T04:40:18.371Z,14.20
2023-05-08T04:42:47.896Z,14.65
2023-05-08T04:45:18.977Z,13.82
2023-05-08T04:47:46.230Z,15.43
2023-05-08T04:50:14.074Z,15.82
2023-05-08T04:52:47.180Z,14.55
2023-05-08T04:55:14.758Z,16.73
2023-05-08T04:57:44.858Z,15.77
2023-05-08T05:00:18.407Z,15.40
2023-05-08T05:05:13.732Z,13.90
2023-05-08T05:07:41.552Z,15.00
2023-05-08T05:10:09.058Z,15.05
2023-05-08T05:12:52.479Z,15.20
2023-05-08T05:15:20.304Z,16.70
2023-05-08T05:17:48.295Z,16.02
2023-05-08T05:20:17.947Z,16.45
2023-05-08T05:22:44.810Z,16.40
2023-05-08T05:25:13.089Z,17.13
2023-05-08T05:30:08.450Z,13.23
2023-05-08T05:32:40.029Z,14.98
2023-05-08T05:35:08.391Z,15.82
2023-05-08T05:37:36.134Z,16.77
2023-05-08T05:40:06.707Z,15.25
2023-05-08T05:42:34.994Z,15.90
2023-05-08T05:45:06.839Z,14.65
2023-05-08T05:47:34.755Z,16.52
2023-05-08T05:50:06.120Z,18.48
2023-05-08T05:52:34.320Z,15.55
2023-05-08T05:55:07.889Z,18.33
2023-05-08T05:57:36.728Z,15.20
2023-05-08T06:00:05.143Z,14.27
2023-05-08T06:02:42.006Z,14.45
2023-05-08T06:05:11.254Z,15.20
2023-05-08T06:07:38.429Z,16.55
2023-05-08T06:10:05.954Z,16.30
2023-05-08T06:12:32.749Z,15.38
2023-05-08T06:15:00.450Z,14.40
2023-05-08T06:17:27.516Z,14.48
2023-05-08T06:19:56.618Z,16.27
2023-05-08T06:22:24.514Z,15.38
2023-05-08T06:24:53.591Z,17.67
2023-05-08T06:27:21.381Z,16.30
2023-05-08T06:29:51.671Z,16.67
2023-05-08T06:32:19.279Z,14.57
2023-05-08T06:34:46.294Z,15.95
2023-05-08T06:37:12.994Z,15.50
2023-05-08T06:39:39.787Z,14.32
2023-05-08T06:42:08.184Z,16.67
2023-05-08T06:44:38.848Z,15.43
2023-05-08T06:47:05.665Z,17.88
2023-05-08T06:49:32.585Z,17.15
2023-05-08T06:51:59.296Z,16.00
2023-05-08T06:54:26.039Z,15.63
2023-05-08T06:56:54.286Z,13.93
2023-05-08T06:59:23.392Z,15.20
2023-05-08T07:01:50.811Z,16.75
2023-05-08T07:04:17.773Z,15.85
2023-05-08T07:06:44.556Z,14.80
2023-05-08T07:09:12.114Z,17.02
2023-05-08T07:11:39.007Z,14.80
2023-05-08T07:14:05.692Z,19.33
2023-05-08T07:16:32.601Z,15.98
2023-05-08T07:18:59.646Z,15.30
2023-05-08T07:21:26.587Z,14.23
2023-05-08T07:23:53.987Z,14.18
2023-05-08T07:26:21.680Z,18.83
2023-05-08T07:28:50.839Z,15.68
2023-05-08T07:31:19.710Z,14.70
2023-05-08T07:33:47.109Z,14.30
2023-05-08T07:36:14.082Z,17.00
2023-05-08T07:38:40.859Z,16.55
2023-05-08T07:41:08.247Z,16.02
2023-05-08T07:43:35.093Z,16.20
2023-05-08T07:46:01.736Z,17.02
2023-05-08T07:48:28.474Z,17.58
2023-05-08T07:50:55.179Z,15.73
2023-05-08T07:53:21.990Z,14.32
2023-05-08T07:55:48.719Z,17.52
2023-05-08T07:58:15.561Z,15.60
2023-05-08T08:00:42.294Z,14.95
2023-05-08T08:03:09.103Z,16.92
2023-05-08T08:05:36.224Z,16.45
2023-05-08T08:08:04.473Z,14.55
2023-05-08T08:10:31.597Z,17.63
2023-05-08T08:12:58.411Z,15.25
2023-05-08T08:15:25.134Z,14.40
2023-05-08T08:17:52.206Z,14.88
2023-05-08T08:20:19.330Z,13.43
2023-05-08T08:22:46.462Z,15.77
2023-05-08T08:25:13.874Z,16.27
2023-05-08T08:27:40.736Z,16.17
2023-05-08T08:30:16.911Z,14.65
2023-05-08T08:32:44.791Z,15.90
2023-05-08T08:35:12.037Z,17.13
2023-05-08T08:37:39.117Z,15.10
2023-05-08T08:40:06.711Z,15.13
2023-05-08T08:42:33.787Z,15.55
2023-05-08T08:45:01.794Z,17.05
2023-05-08T08:47:30.121Z,15.73
2023-05-08T08:50:02.664Z,14.25
2023-05-08T08:52:41.331Z,16.98
2023-05-08T08:55:12.731Z,15.52
2023-05-08T08:57:52.831Z,15.38
2023-05-08T09:00:22.483Z,15.80
2023-05-08T09:02:49.441Z,15.30
2023-05-08T09:05:16.810Z,14.40
2023-05-08T09:07:44.151Z,15.85
2023-05-08T09:10:15.475Z,16.15
2023-05-08T09:12:42.988Z,14.43
2023-05-08T09:15:10.395Z,16.00
2023-05-08T09:17:37.414Z,13.98
2023-05-08T09:20:04.899Z,14.43
2023-05-08T09:22:32.570Z,15.13
2023-05-08T09:25:01.099Z,13.82
2023-05-08T09:30:07.722Z,13.52
2023-05-08T09:32:42.204Z,14.07
2023-05-08T09:35:10.076Z,14.77
2023-05-08T09:37:44.165Z,13.73
2023-05-08T09:40:20.959Z,15.43
2023-05-08T09:42:50.023Z,14.45
2023-05-08T09:45:28.611Z,13.20
2023-05-08T09:47:55.624Z,13.77
2023-05-08T09:50:22.673Z,14.90
2023-05-08T09:52:50.536Z,15.77
2023-05-08T09:55:18.212Z,14.93
2023-05-08T09:57:59.749Z,14.63
2023-05-08T10:00:28.435Z,13.13
2023-05-08T10:05:34.668Z,15.32
2023-05-08T10:08:21.604Z,12.55
2023-05-08T10:10:48.634Z,14.98
2023-05-08T10:13:15.902Z,12.70
2023-05-08T10:15:44.410Z,13.15
2023-05-08T10:18:14.782Z,15.90
2023-05-08T10:20:45.207Z,12.20
2023-05-08T10:23:15.750Z,12.30
2023-05-08T10:25:46.169Z,13.85
2023-05-08T10:28:32.549Z,12.25
2023-05-08T10:31:05.564Z,14.60
2023-05-08T10:33:35.141Z,12.70
2023-05-08T10:36:02.330Z,12.50
2023-05-08T10:38:30.946Z,11.20
2023-05-08T10:41:01.355Z,13.45
2023-05-08T10:43:30.456Z,13.38
2023-05-08T10:45:58.874Z,13.80
2023-05-08T10:48:37.431Z,13.07
2023-05-08T10:51:35.553Z,12.82
2023-05-08T10:54:19.461Z,12.48
2023-05-08T10:56:46.304Z,12.65
2023-05-08T10:59:19.985Z,13.32
2023-05-08T11:01:50.199Z,12.60
2023-05-08T11:04:22.482Z,13.50
2023-05-08T11:06:53.012Z,15.15
2023-05-08T11:09:27.899Z,13.77
2023-05-08T11:12:06.592Z,13.63
2023-05-08T11:14:36.111Z,12.90
2023-05-08T11:17:03.675Z,14.85
2023-05-08T11:19:30.879Z,14.32
2023-05-08T11:22:37.096Z,12.40
2023-05-08T11:25:05.566Z,12.73
2023-05-08T11:27:39.650Z,11.70
2023-05-08T11:30:22.789Z,13.15
2023-05-08T11:33:14.786Z,12.88
2023-05-08T11:35:52.178Z,13.38
2023-05-08T11:38:21.542Z,13.30
2023-05-08T11:40:58.408Z,14.05
2023-05-08T11:43:34.095Z,12.63
2023-05-08T11:46:14.036Z,12.32
2023-05-08T11:48:41.033Z,12.82
2023-05-08T11:51:07.907Z,12.75
2023-05-08T11:53:36.502Z,12.38
2023-05-08T11:56:03.689Z,14.10
2023-05-08T11:58:31.105Z,12.38
2023-05-08T12:00:58.271Z,12.45
2023-05-08T12:03:26.323Z,14.10
2023-05-08T12:05:56.796Z,12.35
2023-05-08T12:08:24.122Z,12.10
2023-05-08T12:10:53.913Z,12.85
2023-05-08T12:13:28.954Z,13.27
2023-05-08T12:15:56.989Z,12.82
2023-05-08T12:18:25.133Z,13.75
2023-05-08T12:20:53.454Z,14.95
2023-05-08T12:23:20.648Z,12.95
2023-05-08T12:25:47.846Z,12.20
2023-05-08T12:28:15.837Z,11.98
2023-05-08T12:30:42.726Z,12.02
2023-05-08T12:33:11.169Z,12.88
2023-05-08T12:38:09.043Z,12.60
2023-05-08T12:40:42.933Z,12.18
2023-05-08T12:43:10.220Z,12.65
2023-05-08T12:45:40.039Z,13.80
2023-05-08T12:48:09.545Z,12.52
2023-05-08T12:50:41.485Z,12.63
2023-05-08T12:53:12.558Z,12.05
2023-05-08T12:55:40.893Z,10.15
2023-05-08T13:00:44.439Z,11.13
2023-05-08T13:03:21.970Z,10.85
2023-05-08T13:05:49.183Z,12.45
2023-05-08T13:08:15.921Z,10.00
2023-05-08T13:10:53.842Z,12.35
2023-05-08T13:13:26.005Z,12.13
2023-05-08T13:15:54.935Z,11.27
2023-05-08T13:18:27.531Z,11.52
2023-05-08T13:20:56.373Z,10.73
2023-05-08T13:23:23.341Z,11.25
2023-05-08T13:25:51.244Z,11.10
2023-05-08T13:28:18.386Z,10.95
2023-05-08T13:30:45.100Z,10.45
2023-05-08T13:33:12.182Z,9.98
2023-05-08T13:35:39.063Z,9.88
2023-05-08T13:38:06.168Z,12.00
2023-05-08T13:40:33.257Z,9.40
2023-05-08T13:43:00.404Z,9.13
2023-05-08T13:45:27.351Z,8.00
2023-05-08T13:47:54.394Z,8.90
2023-05-08T13:50:22.212Z,9.30
2023-05-08T13:52:50.165Z,7.30
2023-05-08T13:55:19.925Z,8.52
2023-05-08T13:57:46.619Z,7.20
2023-05-08T14:00:15.457Z,7.37
2023-05-08T14:02:42.682Z,8.75
2023-05-08T14:05:09.697Z,8.85
2023-05-08T14:07:36.508Z,6.45
2023-05-08T14:10:03.679Z,6.35
2023-05-08T14:12:30.602Z,6.88
2023-05-08T14:14:57.380Z,7.38
2023-05-08T14:17:24.122Z,6.80
2023-05-08T14:19:50.833Z,6.63
2023-05-08T14:22:17.660Z,7.40
2023-05-08T14:24:44.505Z,6.28
2023-05-08T14:27:11.703Z,6.85
2023-05-08T14:29:38.666Z,4.97
2023-05-08T14:32:05.964Z,5.47
2023-05-08T14:34:32.872Z,5.15
2023-05-08T14:36:59.611Z,4.57
2023-05-08T14:39:26.332Z,4.70
2023-05-08T14:44:23.124Z,3.83
2023-05-08T14:46:49.957Z,5.38
2023-05-08T14:49:25.429Z,4.20
2023-05-08T14:51:55.767Z,4.18
2023-05-08T14:54:22.599Z,3.40
2023-05-08T14:56:49.621Z,4.45
2023-05-08T14:59:16.434Z,3.75
2023-05-08T15:01:43.254Z,3.67
2023-05-08T15:04:11.349Z,3.65
2023-05-08T15:06:40.468Z,4.22
2023-05-08T15:09:10.349Z,3.85
2023-05-08T15:11:37.505Z,4.28
2023-05-08T15:14:04.802Z,3.45
2023-05-08T15:16:31.599Z,3.72
2023-05-08T15:18:58.385Z,3.28
2023-05-08T15:21:26.898Z,3.55
2023-05-08T15:23:55.646Z,3.47
2023-05-08T15:26:23.171Z,2.88
2023-05-08T15:28:50.808Z,3.08
2023-05-08T15:31:19.451Z,3.00
2023-05-08T15:33:47.965Z,4.75
2023-05-08T15:36:15.181Z,3.15
2023-05-08T15:38:43.968Z,7.22
2023-05-08T15:41:15.345Z,3.38
2023-05-08T15:43:51.155Z,5.57
2023-05-08T15:46:19.551Z,3.35
2023-05-08T15:48:46.874Z,2.75
2023-05-08T15:51:14.178Z,3.08
2023-05-08T15:53:41.133Z,7.28
2023-05-08T15:56:07.884Z,3.22
2023-05-08T15:58:36.702Z,3.42
2023-05-08T16:01:05.240Z,2.80
2023-05-08T16:03:37.875Z,4.47
2023-05-08T16:06:04.826Z,4.88
2023-05-08T16:08:31.596Z,3.28
2023-05-08T16:10:58.473Z,6.45
2023-05-08T16:13:25.372Z,4.15
2023-05-08T16:15:52.326Z,4.75
2023-05-08T16:18:19.088Z,4.43
2023-05-08T16:20:46.872Z,4.95
2023-05-08T16:23:14.970Z,4.97
2023-05-08T16:25:41.638Z,4.43
2023-05-08T16:28:08.399Z,4.50
2023-05-08T16:30:35.204Z,5.13
2023-05-08T16:33:02.290Z,5.13
2023-05-08T16:35:29.685Z,4.68
2023-05-08T16:37:56.386Z,6.32
2023-05-08T16:40:23.060Z,4.53
2023-05-08T16:42:49.726Z,4.68
2023-05-08T16:45:16.459Z,4.93
2023-05-08T16:47:43.298Z,4.15
2023-05-08T16:50:10.826Z,4.25
2023-05-08T16:52:38.469Z,4.70
2023-05-08T16:55:05.666Z,5.30
2023-05-08T16:57:32.418Z,4.70
2023-05-08T16:59:59.157Z,5.40
2023-05-08T17:02:26.096Z,7.00
2023-05-08T17:04:52.880Z,5.95
2023-05-08T17:07:19.692Z,5.25
2023-05-08T17:09:49.240Z,4.13
2023-05-08T17:12:16.002Z,4.07
2023-05-08T17:14:42.846Z,4.15
2023-05-08T17:17:09.579Z,4.32
2023-05-08T17:19:36.255Z,6.88
2023-05-08T17:22:03.492Z,4.60
2023-05-08T17:24:30.863Z,4.60
2023-05-08T17:26:57.993Z,4.43
2023-05-08T17:29:24.953Z,3.90
2023-05-08T17:31:51.885Z,3.42
2023-05-08T17:34:18.653Z,6.22
2023-05-08T17:36:45.427Z,4.03
2023-05-08T17:39:12.574Z,4.85
2023-05-08T17:41:42.612Z,5.05
2023-05-08T17:44:09.355Z,3.40
2023-05-08T17:46:36.249Z,4.00
2023-05-08T17:49:03.213Z,3.63
2023-05-08T17:51:29.890Z,3.53
2023-05-08T17:53:56.710Z,3.60
2023-05-08T17:56:24.103Z,3.80
2023-05-08T17:58:52.560Z,3.70
2023-05-08T18:01:20.321Z,4.40
2023-05-08T18:03:50.830Z,3.85
2023-05-08T18:06:18.324Z,4.53
2023-05-08T18:08:45.997Z,4.40
2023-05-08T18:11:30.579Z,3.60
2023-05-08T18:13:57.282Z,3.65
2023-05-08T18:16:24.226Z,3.40
2023-05-08T18:18:51.961Z,5.88
2023-05-08T18:21:18.852Z,5.50
2023-05-08T18:23:45.643Z,4.63
2023-05-08T18:26:16.385Z,4.20
2023-05-08T18:28:44.218Z,3.67
2023-05-08T18:31:11.884Z,6.38
2023-05-08T18:33:39.205Z,3.10
2023-05-08T18:36:07.418Z,5.22
2023-05-08T18:38:37.414Z,3.75
2023-05-08T18:41:07.380Z,4.25
2023-05-08T18:43:37.685Z,4.88
2023-05-08T18:46:12.698Z,4.45
2023-05-08T18:48:41.158Z,4.07
2023-05-08T18:51:08.043Z,5.10
2023-05-08T18:53:38.291Z,4.68
2023-05-08T18:56:06.126Z,4.90
2023-05-08T18:58:32.951Z,5.88
2023-05-08T19:00:59.818Z,4.63
2023-05-08T19:03:26.640Z,4.60
2023-05-08T19:05:55.164Z,5.18
2023-05-08T19:10:49.145Z,6.20
2023-05-08T19:13:16.112Z,6.10
2023-05-08T19:15:42.913Z,5.28
2023-05-08T19:18:09.740Z,6.22
2023-05-08T19:20:36.518Z,7.60
2023-05-08T19:23:03.251Z,5.68
2023-05-08T19:25:30.378Z,7.25
2023-05-08T19:28:00.549Z,6.38
2023-05-08T19:30:27.540Z,6.78
2023-05-08T19:32:54.732Z,5.47
2023-05-08T19:35:22.204Z,5.50
2023-05-08T19:37:49.323Z,6.05
2023-05-08T19:40:16.526Z,5.95
2023-05-08T19:42:46.386Z,6.35
2023-05-08T19:45:13.464Z,6.38
2023-05-08T19:47:40.215Z,5.18
2023-05-08T19:50:07.459Z,5.50
2023-05-08T19:52:34.652Z,6.18
2023-05-08T19:55:02.006Z,6.93
2023-05-08T19:57:29.022Z,6.38
2023-05-08T19:59:56.282Z,5.65
2023-05-08T20:02:23.328Z,5.45
2023-05-08T20:05:14.220Z,3.83
2023-05-08T20:07:36.702Z,4.20
2023-05-08T20:10:03.648Z,4.18
2023-05-08T20:12:30.802Z,4.20
2023-05-08T20:14:57.573Z,3.72
2023-05-08T20:17:24.324Z,3.75
2023-05-08T20:19:51.084Z,3.72
2023-05-08T20:22:17.804Z,4.00
2023-05-08T20:24:44.488Z,5.30
2023-05-08T20:27:11.113Z,4.40
2023-05-08T20:29:37.832Z,4.65
2023-05-08T20:32:04.510Z,4.63
2023-05-08T20:34:35.044Z,5.03
2023-05-08T20:37:03.818Z,5.65
2023-05-08T20:39:30.638Z,4.78
2023-05-08T20:41:57.367Z,5.65
2023-05-08T20:44:24.208Z,4.85
2023-05-08T20:46:52.098Z,4.40
2023-05-08T20:49:18.914Z,5.20
2023-05-08T20:51:45.835Z,6.20
2023-05-08T20:54:12.603Z,5.03
2023-05-08T20:56:39.319Z,4.93
2023-05-08T20:59:05.988Z,5.65
2023-05-08T21:01:32.838Z,5.38
2023-05-08T21:03:59.655Z,5.70
2023-05-08T21:06:26.432Z,5.47
2023-05-08T21:08:53.297Z,5.90
2023-05-08T21:11:20.054Z,5.63
2023-05-08T21:13:46.976Z,5.32
2023-05-08T21:16:13.786Z,4.45
2023-05-08T21:18:40.581Z,6.57
2023-05-08T21:21:18.141Z,4.93
2023-05-08T21:23:44.907Z,6.35
2023-05-08T21:26:12.008Z,3.72
2023-05-08T21:28:39.445Z,5.07
2023-05-08T21:31:09.064Z,4.53
2023-05-08T21:33:39.131Z,5.05
2023-05-08T21:36:08.750Z,5.35
2023-05-08T21:38:35.670Z,4.88
2023-05-08T21:41:14.049Z,4.85
2023-05-08T21:43:41.718Z,5.78
2023-05-08T21:46:09.471Z,5.30
2023-05-08T21:48:36.977Z,5.07
2023-05-08T21:51:05.869Z,5.55
2023-05-08T21:53:32.831Z,5.05
2023-05-08T21:55:59.872Z,5.40
2023-05-08T21:58:26.529Z,4.82
2023-05-08T22:00:53.215Z,5.05
2023-05-08T22:03:20.017Z,4.72
2023-05-08T22:05:46.893Z,4.97
2023-05-08T22:08:13.699Z,5.05
2023-05-08T22:10:40.600Z,4.80
2023-05-08T22:13:07.596Z,5.47
2023-05-08T22:15:34.610Z,6.05
2023-05-08T22:18:02.896Z,5.47
2023-05-08T22:20:30.549Z,4.95
2023-05-08T22:22:57.323Z,4.60
2023-05-08T22:25:25.863Z,6.50
2023-05-08T22:30:19.430Z,5.43
2023-05-08T22:32:53.694Z,4.55
2023-05-08T22:35:24.884Z,6.63
2023-05-08T22:37:52.678Z,5.30
2023-05-08T22:40:20.127Z,4.57
2023-05-08T22:42:47.523Z,4.93
2023-05-08T22:45:14.909Z,5.40
2023-05-08T22:47:42.261Z,5.45
2023-05-08T22:50:09.458Z,6.32
2023-05-08T22:52:37.024Z,8.05
2023-05-08T22:55:04.053Z,5.57
2023-05-08T22:57:31.058Z,6.72
2023-05-08T22:59:57.731Z,5.50
2023-05-08T23:02:24.453Z,6.15
2023-05-08T23:04:51.130Z,5.35
2023-05-08T23:07:17.963Z,6.57
2023-05-08T23:09:44.686Z,5.78
2023-05-08T23:12:11.377Z,5.78
2023-05-08T23:14:37.999Z,6.97
2023-05-08T23:17:04.862Z,7.57
2023-05-08T23:19:31.585Z,6.03
2023-05-08T23:21:58.390Z,7.43
2023-05-08T23:24:26.039Z,6.95
2023-05-08T23:26:53.229Z,5.43
2023-05-08T23:29:20.398Z,5.15
2023-05-08T23:31:47.212Z,6.45
2023-05-08T23:34:13.985Z,6.15
2023-05-08T23:36:40.689Z,6.68
2023-05-08T23:39:07.451Z,6.30
2023-05-08T23:41:34.188Z,5.85
2023-05-08T23:44:01.221Z,7.50
2023-05-08T23:46:27.992Z,6.13
2023-05-08T23:48:54.695Z,6.28
2023-05-08T23:51:21.683Z,6.32
2023-05-08T23:53:49.079Z,6.88
2023-05-08T23:56:15.984Z,7.25
2023-05-08T23:58:42.717Z,6.75
